Latest Weather Observations for Cooma Airport

IDN60901

Issued at 12:21 pm EST Thursday 28 May 2015 (issued every 10 minutes, with the page automatically refreshed every 10 minutes)

About weather observations | Map of Canberra area stations | Latest observations for Canberra area | Other Formats
Station Details ID: 070217 Name: COOMA AIRPORT AWS Lat: -36.29 Lon: 148.97 Height: 930.0 m
Data from the previous 72 hours. | See also: Recent months for locations in Aust Capital Territory
Date/Time
EST
Tmp

°C
App
Tmp
°C
Dew
Point
°C
Rel
Hum
%
Delta-T

°C
Wind Press
QNH
hPa
Press
MSL
hPa
Rain
since
9 am
mm
Dir
 
Spd
km/h
Gust
km/h
Spd
kts
Gust
kts
28/12:00pm 12.7 7.3 4.7 58 3.9 NNW 22 30 12 16 1020.9 1021.2 0.0
28/11:30am 12.9 8.0 5.3 60 3.7 NNW 20 26 11 14 1021.5 1021.8 0.0
28/11:00am 13.9 9.1 5.8 58 4.0 NNW 20 28 11 15 1021.9 1022.2 0.0
28/10:30am 13.2 8.9 5.4 59 3.8 NNW 17 32 9 17 1022.5 1022.8 0.0
28/10:00am 10.5 6.2 7.0 79 1.7 ENE 19 24 10 13 1022.6 1022.9 0.0
28/09:30am 10.7 6.8 7.0 78 1.9 NE 17 22 9 12 1022.8 1023.1 0.0
28/09:00am 9.9 7.1 7.0 82 1.4 NNE 11 15 6 8 1022.8 1023.1 0.0
28/08:30am 8.3 4.5 5.8 84 1.2 ENE 15 20 8 11 1022.7 1023.0 0.0
28/08:00am 8.5 4.5 6.5 87 1.0 NNW 17 20 9 11 1022.7 1023.0 0.0
28/07:30am 7.2 2.7 7.1 99 0.0 NNW 20 24 11 13 1022.6 1022.9 0.0
28/07:29am 7.0 2.5 6.9 99 0.0 NNW 20 24 11 13 1022.6 1022.9 0.0
28/07:00am 2.0 -2.2 1.9 99 0.0 NNE 13 19 7 10 1022.6 1022.9 0.0
28/06:59am 2.1 -2.0 2.0 99 0.0 NNE 13 19 7 10 1022.6 1022.9 0.0
28/06:30am 0.2 -3.5 0.1 99 0.0 NE 9 11 5 6 1022.6 1022.9 0.0
28/05:30am 2.1 -2.0 2.0 99 0.0 N 13 15 7 8 1021.8 1022.1 0.0
28/05:00am 0.3 -3.0 0.2 99 0.0 NE 7 7 4 4 1021.7 1022.0 0.0
28/04:53am 0.1 -3.0 0.0 99 0.0 NE 6 9 3 5 1021.8 1022.1 0.0
28/04:36am 0.8 -3.2 0.7 99 0.0 NNE 11 13 6 7 1021.8 1022.1 0.0
28/04:35am 0.9 -3.1 0.8 99 0.0 NNE 11 13 6 7 1021.8 1022.1 0.0
28/04:30am 2.2 -1.9 2.1 99 0.0 NNE 13 15 7 8 1021.8 1022.1 0.0
28/04:04am 1.8 -1.6 1.7 99 0.0 NNE 9 11 5 6 1021.7 1022.0 0.0
28/04:00am 1.8 -1.6 1.7 99 0.0 NNE 9 11 5 6 1021.6 1021.9 0.0
28/03:30am 2.2 -1.9 2.1 99 0.0 NNE 13 15 7 8 1021.8 1022.1 0.0
28/03:00am 2.7 -0.6 2.4 98 0.1 ENE 9 13 5 7 1021.9 1022.2 0.0
28/02:30am 4.7 1.1 2.9 88 0.8 NNW 11 15 6 8 1022.1 1022.4 0.0
28/02:00am 6.4 3.2 4.9 90 0.7 NW 11 15 6 8 1022.1 1022.4 0.0
28/01:30am 6.7 3.5 5.3 91 0.7 NW 11 17 6 9 1022.3 1022.6 0.0
28/01:00am 6.8 3.0 5.7 93 0.5 NW 15 20 8 11 1022.3 1022.6 0.0
28/12:30am 5.0 0.9 4.4 96 0.3 NNW 15 19 8 10 1022.6 1022.9 0.0
 
Date/Time
EST
Tmp

°C
App
Tmp
°C
Dew
Point
°C
Rel
Hum
%
Delta-T

°C
Wind Press
QNH
hPa
Press
MSL
hPa
Rain
since
9 am
mm
Dir
 
Spd
km/h
Gust
km/h
Spd
kts
Gust
kts
27/11:30pm 4.9 1.6 4.3 96 0.3 NNW 11 13 6 7 1022.8 1023.1 0.0
27/11:00pm 5.0 2.4 3.3 89 0.7 NNE 6 7 3 4 1023.0 1023.3 0.0
27/10:30pm 6.5 2.9 5.0 90 0.7 NNW 13 17 7 9 1023.2 1023.5 0.0
27/10:00pm 7.4 4.0 5.7 89 0.8 NW 13 17 7 9 1023.0 1023.3 0.0
27/09:30pm 7.6 3.7 5.2 85 1.1 NW 15 17 8 9 1023.1 1023.4 0.0
27/09:00pm 8.3 4.7 5.2 81 1.5 NW 13 17 7 9 1023.0 1023.3 0.0
27/08:30pm 8.5 4.8 6.1 85 1.2 NW 15 20 8 11 1022.8 1023.1 0.0
27/08:00pm 6.9 3.4 5.5 91 0.7 NNW 13 17 7 9 1022.9 1023.2 0.0
27/07:30pm 5.1 2.2 4.4 95 0.3 E 9 13 5 7 1022.9 1023.2 0.0
27/07:00pm 5.9 2.1 4.1 88 0.8 N 13 17 7 9 1022.7 1023.0 0.0
27/06:30pm 5.6 3.7 2.9 83 1.2 E 2 11 1 6 1022.3 1022.6 0.0
27/05:30pm 8.9 6.6 5.5 79 1.6 NNW 7 11 4 6 1022.2 1022.5 0.0
27/05:00pm 10.0 7.9 5.8 75 2.0 N 6 13 3 7 1022.0 1022.3 0.0
27/04:30pm 10.8 8.1 5.8 71 2.4 NNW 9 19 5 10 1022.1 1022.4 0.0
27/04:00pm 11.4 8.4 5.9 69 2.7 NNW 11 20 6 11 1021.9 1022.2 0.0
27/03:30pm 11.8 7.6 5.7 66 3.0 WNW 17 24 9 13 1021.8 1022.1 0.0
27/03:00pm 13.3 8.8 5.9 61 3.7 W 19 28 10 15 1021.7 1022.0 0.0
27/02:30pm 12.7 7.5 5.4 61 3.6 WNW 22 32 12 17 1021.5 1021.8 0.0
27/02:00pm 12.8 8.0 5.5 61 3.6 WNW 20 32 11 17 1021.7 1022.0 0.0
27/01:30pm 13.4 8.6 4.8 56 4.2 WSW 19 26 10 14 1021.6 1021.9 0.0
27/01:00pm 13.0 7.9 4.2 55 4.2 W 20 33 11 18 1021.9 1022.2 0.0
27/12:30pm 13.3 8.2 3.9 53 4.5 W 20 33 11 18 1022.1 1022.4 0.0
27/12:00pm 13.1 7.9 3.7 53 4.4 WNW 20 41 11 22 1022.5 1022.8 0.0
27/11:30am 13.4 8.9 4.0 53 4.5 W 17 24 9 13 1022.9 1023.2 0.0
27/11:00am 13.7 8.5 3.5 50 4.8 WNW 20 35 11 19 1023.4 1023.8 0.0
27/10:30am 11.2 6.2 1.2 50 4.4 NE 17 20 9 11 1023.6 1023.9 0.0
27/10:00am 9.3 4.9 0.5 54 3.7 NE 13 15 7 8 1023.9 1024.2 0.0
27/09:30am 8.2 3.9 1.1 61 3.1 NNE 13 17 7 9 1024.0 1024.3 0.0
27/09:00am 6.8 2.0 0.3 63 2.7 NNE 15 19 8 10 1024.1 1024.4 0.0
27/08:30am 6.0 2.6 1.7 74 1.8 NE 9 13 5 7 1024.2 1024.5 0.0
27/08:00am 2.1 -1.5 0.8 91 0.5 N 9 13 5 7 1024.1 1024.4 0.0
27/07:30am 0.4 -3.4 -0.7 92 0.4 ENE 9 11 5 6 1024.1 1024.4 0.0
27/07:00am 1.5 -2.3 -0.4 87 0.7 NNW 9 11 5 6 1023.9 1024.2 0.0
27/06:30am 1.8 -2.0 -0.6 84 0.9 N 9 11 5 6 1023.6 1023.9 0.0
27/06:00am 2.5 -1.2 0.2 85 0.9 N 9 11 5 6 1023.0 1023.3 0.0
27/05:30am 2.9 -0.1 0.5 84 1.0 N 6 7 3 4 1023.1 1023.4 0.0
27/05:00am 2.4 -1.1 1.1 91 0.5 NNE 9 11 5 6 1022.9 1023.2 0.0
27/04:30am 1.6 -2.4 0.6 93 0.4 NNE 11 13 6 7 1022.6 1022.9 0.0
27/04:00am 1.5 -2.9 0.3 92 0.5 NNE 13 15 7 8 1022.9 1023.2 0.0
27/03:30am 1.8 -2.2 0.6 92 0.5 NE 11 13 6 7 1023.2 1023.5 0.0
27/03:00am 2.8 -1.1 1.3 90 0.6 NNE 11 13 6 7 1023.4 1023.8 0.0
27/02:30am 3.3 -0.5 1.5 88 0.7 NNE 11 13 6 7 1023.8 1024.1 0.0
27/02:00am 3.2 -0.4 0.9 85 0.9 NNE 9 11 5 6 1024.1 1024.4 0.0
27/01:30am 3.7 -1.0 0.7 81 1.2 NNE 15 15 8 8 1024.2 1024.5 0.0
27/01:00am 3.1 -0.1 0.5 83 1.0 NNE 7 9 4 5 1024.3 1024.7 0.0
27/12:30am 3.2 0.1 -0.1 79 1.3 ENE 6 6 3 3 1024.6 1025.0 0.0
27/12:00am 3.5 -0.1 0.4 80 1.2 ENE 9 11 5 6 1025.0 1025.3 0.0
 
Date/Time
EST
Tmp

°C
App
Tmp
°C
Dew
Point
°C
Rel
Hum
%
Delta-T

°C
Wind Press
QNH
hPa
Press
MSL
hPa
Rain
since
9 am
mm
Dir
 
Spd
km/h
Gust
km/h
Spd
kts
Gust
kts
26/11:30pm 2.6 -1.1 0.0 83 1.0 NNE 9 11 5 6 1024.9 1025.2 0.0
26/11:00pm 2.9 -1.6 -0.4 79 1.3 NNE 13 17 7 9 1025.0 1025.3 0.0
26/10:30pm 4.3 0.4 1.0 79 1.4 ENE 11 13 6 7 1025.1 1025.4 0.0
26/10:00pm 4.6 1.0 0.4 74 1.7 NNE 9 13 5 7 1025.6 1026.0 0.0
26/09:30pm 3.3 -0.8 -0.2 78 1.4 NNE 11 15 6 8 1025.6 1026.0 0.0
26/09:00pm 4.3 0.9 -0.9 69 2.0 NNW 7 9 4 5 1026.2 1026.6 0.0
26/08:30pm 3.3 0.5 -0.2 78 1.4 SW 4 6 2 3 1026.2 1026.6 0.0
26/08:00pm 3.4 0.3 -0.1 78 1.4 NNW 6 9 3 5 1026.1 1026.5 0.0
26/07:30pm 3.5 1.0 -1.1 72 1.8 ENE 2 7 1 4 1026.2 1026.6 0.0
26/07:00pm 4.0 1.8 -1.4 68 2.1 CALM 0 4 0 2 1026.2 1026.6 0.0
26/06:30pm 4.1 1.9 -1.5 67 2.2 CALM 0 0 0 0 1026.2 1026.6 0.0
26/06:00pm 3.8 1.7 -0.6 73 1.7 CALM 0 0 0 0 1026.2 1026.6 0.0
26/05:30pm 5.2 3.0 -1.9 60 2.7 CALM 0 0 0 0 1025.6 1026.0 0.0
26/05:00pm 5.2 2.0 -3.6 53 3.2 ENE 4 9 2 5 1025.7 1026.1 0.0
26/04:30pm 8.4 4.3 -3.4 43 4.6 N 9 11 5 6 1025.8 1026.2 0.0
26/04:00pm 10.7 6.4 -4.9 33 5.9 ENE 9 11 5 6 1025.6 1026.0 0.0
26/03:30pm 12.8 8.4 -5.7 27 7.1 E 9 13 5 7 1025.6 1026.0 0.0
26/03:00pm 12.1 6.9 -10.1 20 7.6 ENE 11 15 6 8 1025.6 1026.0 0.0
26/02:30pm 12.9 8.4 -6.6 25 7.4 ENE 9 13 5 7 1025.8 1026.2 0.0
26/02:00pm 12.7 8.2 -6.8 25 7.3 E 9 13 5 7 1026.2 1026.6 0.0
26/01:30pm 12.7 8.4 -4.9 29 6.9 NE 9 15 5 8 1026.5 1026.9 0.0
26/01:00pm 12.1 7.5 -4.1 32 6.4 NNE 11 15 6 8 1026.8 1027.2 0.0
26/12:30pm 12.3 9.1 -3.9 32 6.5 ENE 4 9 2 5 1027.3 1027.7 0.0
26/12:00pm 11.0 8.1 -4.2 34 5.9 ESE 2 7 1 4 1027.8 1028.2 0.0
26/11:30am 10.0 7.6 -3.3 39 5.2 CALM 0 7 0 4 1028.5 1028.9 0.0
26/11:00am 8.7 5.7 -2.0 47 4.3 SE 4 7 2 4 1029.1 1029.6 0.0
26/10:30am 8.0 5.4 -2.0 49 4.0 ENE 2 7 1 4 1029.4 1029.8 0.0
26/10:00am 7.3 5.2 -0.9 56 3.3 CALM 0 2 0 1 1029.6 1030.0 0.0
26/09:30am 4.8 1.5 -1.6 63 2.5 NE 6 7 3 4 1029.6 1030.0 0.0
26/09:00am 2.9 0.8 -1.1 75 1.5 CALM 0 0 0 0 1029.7 1030.1 0.0
26/08:30am -0.2 -2.7 -3.7 77 1.2 CALM 0 0 0 0 1029.8 1030.3 0.0
26/08:00am -3.2 -5.8 -5.2 86 0.5 CALM 0 0 0 0 1029.7 1030.1 0.0
26/07:30am -5.6 -8.4 -7.0 90 0.2 CALM 0 0 0 0 1029.8 1030.3 0.0
26/07:00am -7.5 -10.5 -9.1 88 0.2 CALM 0 0 0 0 1029.2 1029.7 0.0
26/06:30am -6.8 -9.7 -7.9 92 0.1 CALM 0 0 0 0 1028.9 1029.4 0.0
26/06:00am -6.5 -9.4 -7.6 92 0.1 CALM 0 0 0 0 1028.6 1029.0 0.0
26/05:30am -6.7 -10.8 -8.3 88 0.2 N 6 6 3 3 1028.5 1028.9 0.0
26/05:00am -6.6 -10.6 -8.1 89 0.2 N 6 7 3 4 1028.6 1029.0 0.0
26/04:30am -6.0 -8.8 -7.4 90 0.2 CALM 0 0 0 0 1028.7 1029.1 0.0
26/04:00am -5.5 -8.3 -6.7 91 0.1 CALM 0 0 0 0 1028.8 1029.2 0.0
26/03:30am -5.5 -8.6 -6.6 92 0.1 NNE 2 6 1 3 1028.9 1029.4 0.0
26/03:00am -5.3 -8.1 -6.8 89 0.2 CALM 0 0 0 0 1029.1 1029.6 0.0
26/02:30am -5.7 -8.5 -7.2 89 0.2 CALM 0 0 0 0 1029.4 1029.8 0.0
26/02:00am -5.2 -8.0 -6.7 89 0.2 CALM 0 0 0 0 1029.4 1029.8 0.0
26/01:30am -4.2 -6.9 -6.0 87 0.4 CALM 0 0 0 0 1029.5 1029.9 0.0
26/01:00am -3.1 -5.6 -4.2 92 0.2 CALM 0 0 0 0 1029.6 1030.0 0.0
26/12:30am -3.0 -5.7 -5.5 83 0.7 CALM 0 0 0 0 1029.7 1030.1 0.0
26/12:00am -1.7 -4.2 -3.6 87 0.6 CALM 0 0 0 0 1029.8 1030.3 0.0
 
Date/Time
EST
Tmp

°C
App
Tmp
°C
Dew
Point
°C
Rel
Hum
%
Delta-T

°C
Wind Press
QNH
hPa
Press
MSL
hPa
Rain
since
9 am
mm
Dir
 
Spd
km/h
Gust
km/h
Spd
kts
Gust
kts
25/11:30pm -0.6 -3.0 -3.1 83 0.9 CALM 0 0 0 0 1029.8 1030.3 0.0
25/11:00pm 0.6 -1.7 -2.4 80 1.1 CALM 0 2 0 1 1029.8 1030.3 0.0
25/10:30pm 2.1 -1.4 -1.2 79 1.3 SW 7 9 4 5 1030.1 1030.6 0.0
25/10:00pm 0.2 -3.1 -1.4 89 0.6 SSE 6 7 3 4 1030.2 1030.7 0.0
25/09:30pm 0.6 -1.7 -2.1 82 1.0 CALM 0 0 0 0 1030.1 1030.6 0.0
25/09:00pm 1.5 -0.7 -1.7 79 1.2 CALM 0 0 0 0 1030.1 1030.6 0.0
25/08:30pm 1.2 -1.0 -1.5 82 1.0 CALM 0 0 0 0 1030.1 1030.6 0.0
25/08:00pm 2.1 -0.1 -1.5 77 1.3 CALM 0 0 0 0 1029.9 1030.4 0.0
25/07:30pm 1.7 -0.5 -1.4 80 1.2 CALM 0 0 0 0 1029.8 1030.3 0.0
25/07:00pm 1.7 -0.8 -1.2 81 1.1 N 2 9 1 5 1029.6 1030.0 0.0
25/06:30pm 2.3 0.0 -2.0 73 1.6 CALM 0 0 0 0 1029.4 1029.8 0.0
25/06:00pm 3.0 0.7 -2.1 69 1.9 CALM 0 0 0 0 1029.0 1029.5 0.0
25/05:30pm 3.3 0.9 -2.8 64 2.3 CALM 0 0 0 0 1028.7 1029.1 0.0
25/05:00pm 5.9 2.6 -1.3 60 2.8 NNW 6 7 3 4 1028.6 1029.0 0.0
25/04:30pm 9.2 7.1 -0.7 50 4.1 CALM 0 0 0 0 1028.7 1029.1 0.0
25/04:00pm 10.6 7.2 -1.8 42 5.1 S 6 7 3 4 1028.9 1029.4 0.0
25/03:30pm 11.9 8.1 -0.9 41 5.4 S 9 11 5 6 1028.9 1029.4 0.0
25/03:00pm 12.8 7.8 -4.3 30 6.7 SSE 13 17 7 9 1028.9 1029.4 0.0
25/02:30pm 13.6 7.6 -2.8 32 6.8 SSE 19 22 10 12 1028.7 1029.1 0.0
25/02:00pm 15.5 11.9 -2.0 30 7.5 N 7 13 4 7 1028.9 1029.4 0.0
25/01:30pm 14.5 10.2 -2.0 32 7.0 NNE 11 15 6 8 1028.8 1029.2 0.0
25/01:00pm 15.0 11.6 -2.0 31 7.2 ENE 6 11 3 6 1028.9 1029.4 0.0
25/12:30pm 12.9 9.8 1.3 45 5.2 ENE 7 9 4 5 1029.4 1029.8 0.0

Latest Capital City Observations: Canberra | Sydney | Melbourne | Brisbane | Adelaide | Perth | Hobart | Darwin

Other Formats:

Comma delimited format used in spreadsheet applications
http://www.bom.gov.au/fwo/IDN60903/IDN60903.94921.axf

JavaScript Object Notation format (JSON) in row-major order
http://www.bom.gov.au/fwo/IDN60903/IDN60903.94921.json